createdAt,value
2024-04-06T00:01:25.577Z,9.10
2024-04-06T00:05:17.234Z,7.60
2024-04-06T00:08:43.694Z,5.40
2024-04-06T00:12:09.957Z,6.40
2024-04-06T00:15:36.368Z,8.10
2024-04-06T00:19:01.519Z,6.30
2024-04-06T00:22:26.597Z,6.00
2024-04-06T00:25:53.798Z,6.80
2024-04-06T00:29:19.170Z,5.70
2024-04-06T00:32:44.327Z,5.00
2024-04-06T00:36:10.533Z,5.70
2024-04-06T00:39:35.684Z,4.60
2024-04-06T00:43:00.707Z,5.60
2024-04-06T00:46:25.859Z,4.80
2024-04-06T00:49:51.116Z,4.40
2024-04-06T00:53:16.446Z,4.40
2024-04-06T00:56:42.212Z,5.20
2024-04-06T01:00:10.347Z,6.10
2024-04-06T01:03:35.617Z,3.50
2024-04-06T01:07:00.684Z,7.10
2024-04-06T01:10:26.212Z,5.90
2024-04-06T01:13:51.448Z,6.80
2024-04-06T01:17:17.045Z,6.20
2024-04-06T01:20:47.292Z,8.70
2024-04-06T01:27:53.894Z,6.90
2024-04-06T01:31:19.108Z,5.60
2024-04-06T01:34:44.279Z,3.80
2024-04-06T01:38:09.534Z,4.30
2024-04-06T01:41:34.545Z,8.70
2024-04-06T01:44:59.956Z,6.00
2024-04-06T01:48:25.063Z,3.90
2024-04-06T01:51:50.122Z,4.40
2024-04-06T01:55:15.624Z,5.00
2024-04-06T01:58:40.765Z,5.80
2024-04-06T02:02:06.327Z,6.50
2024-04-06T02:05:31.463Z,7.20
2024-04-06T02:08:56.520Z,4.60
2024-04-06T02:12:21.779Z,6.10
2024-04-06T02:15:47.735Z,8.30
2024-04-06T02:19:13.087Z,6.60
2024-04-06T02:22:38.377Z,4.40
2024-04-06T02:26:03.401Z,7.90
2024-04-06T02:29:28.528Z,9.20
2024-04-06T02:32:53.587Z,4.90
2024-04-06T02:36:18.909Z,11.50
2024-04-06T02:39:44.729Z,7.70
2024-04-06T02:43:09.714Z,5.20
2024-04-06T02:46:47.323Z,10.50
2024-04-06T02:50:12.760Z,4.30
2024-04-06T02:53:37.895Z,11.20
2024-04-06T02:57:03.310Z,8.10
2024-04-06T03:00:28.749Z,9.30
2024-04-06T03:03:53.771Z,5.10
2024-04-06T03:07:18.713Z,7.50
2024-04-06T03:10:44.070Z,8.70
2024-04-06T03:14:09.340Z,8.70
2024-04-06T03:17:34.226Z,8.50
2024-04-06T03:20:59.865Z,7.20
2024-04-06T03:24:25.682Z,8.00
2024-04-06T03:27:51.041Z,9.30
2024-04-06T03:31:16.461Z,6.00
2024-04-06T03:34:41.777Z,9.80
2024-04-06T03:38:07.020Z,10.30
2024-04-06T03:41:32.352Z,8.90
2024-04-06T03:44:58.964Z,8.10
2024-04-06T03:48:24.418Z,8.10
2024-04-06T03:51:49.641Z,11.40
2024-04-06T03:55:14.914Z,9.40
2024-04-06T03:58:39.783Z,7.00
2024-04-06T04:02:05.003Z,7.70
2024-04-06T04:05:30.148Z,7.60
2024-04-06T04:08:55.612Z,7.00
2024-04-06T04:12:21.368Z,11.70
2024-04-06T04:15:46.468Z,7.70
2024-04-06T04:19:12.742Z,6.50
2024-04-06T04:22:38.067Z,8.60
2024-04-06T04:26:03.076Z,10.20
2024-04-06T04:29:28.270Z,6.60
2024-04-06T04:32:53.718Z,11.80
2024-04-06T04:36:19.370Z,10.90
2024-04-06T04:39:44.744Z,11.50
2024-04-06T04:43:10.073Z,8.10
2024-04-06T04:46:35.106Z,6.80
2024-04-06T04:49:59.947Z,9.00
2024-04-06T04:53:25.071Z,9.00
2024-04-06T04:56:50.476Z,8.90
2024-04-06T05:00:16.267Z,11.70
2024-04-06T05:03:41.886Z,9.60
2024-04-06T05:07:07.253Z,12.00
2024-04-06T05:10:32.667Z,8.90
2024-04-06T05:13:57.929Z,10.20
2024-04-06T05:17:23.467Z,13.40
2024-04-06T05:20:53.289Z,14.70
2024-04-06T05:24:19.452Z,15.00
2024-04-06T05:27:44.559Z,10.70
2024-04-06T05:31:09.720Z,19.10
2024-04-06T05:34:35.556Z,32.60
2024-04-06T05:38:01.274Z,36.50
2024-04-06T05:41:26.686Z,25.50
2024-04-06T05:44:51.689Z,18.60
2024-04-06T05:48:17.112Z,13.40
2024-04-06T05:51:42.420Z,9.10
2024-04-06T05:55:09.298Z,8.20
2024-04-06T05:58:35.609Z,14.60
2024-04-06T06:02:00.777Z,15.60
2024-04-06T06:05:25.886Z,16.90
2024-04-06T06:08:50.792Z,21.10
2024-04-06T06:12:16.249Z,12.00
2024-04-06T06:15:41.830Z,13.00
2024-04-06T06:19:07.295Z,8.90
2024-04-06T06:22:33.180Z,13.30
2024-04-06T06:25:58.144Z,8.70
2024-04-06T06:29:23.225Z,9.20
2024-04-06T06:32:48.444Z,9.30
2024-04-06T06:43:12.019Z,13.40
2024-04-06T06:46:37.295Z,8.20
2024-04-06T06:50:03.741Z,11.70
2024-04-06T06:53:28.921Z,10.90
2024-04-06T06:56:53.990Z,10.00
2024-04-06T07:00:20.591Z,11.30
2024-04-06T07:03:46.144Z,12.80
2024-04-06T07:07:11.486Z,10.00
2024-04-06T07:10:42.247Z,8.90
2024-04-06T07:14:12.588Z,8.70
2024-04-06T07:17:38.116Z,17.60
2024-04-06T07:21:04.468Z,10.10
2024-04-06T07:24:30.591Z,17.00
2024-04-06T07:27:55.755Z,10.30
2024-04-06T07:31:20.858Z,8.90
2024-04-06T07:34:48.074Z,11.60
2024-04-06T07:38:15.108Z,7.50
2024-04-06T07:41:41.305Z,13.30
2024-04-06T07:45:10.197Z,11.70
2024-04-06T07:48:35.155Z,12.60
2024-04-06T07:52:00.433Z,9.80
2024-04-06T07:55:26.492Z,15.40
2024-04-06T07:58:52.065Z,9.50
2024-04-06T08:02:18.017Z,8.40
2024-04-06T08:05:43.227Z,10.60
2024-04-06T08:09:10.012Z,10.40
2024-04-06T08:12:36.233Z,11.40
2024-04-06T08:16:03.472Z,11.20
2024-04-06T08:19:28.408Z,15.30
2024-04-06T08:22:53.619Z,12.80
2024-04-06T08:26:19.236Z,12.50
2024-04-06T08:29:47.004Z,14.90
2024-04-06T08:33:12.802Z,17.70
2024-04-06T08:36:40.001Z,11.90
2024-04-06T08:40:05.998Z,11.90
2024-04-06T08:43:37.137Z,17.20
2024-04-06T08:47:03.656Z,12.40
2024-04-06T08:50:30.463Z,13.10
2024-04-06T08:53:55.805Z,16.40
2024-04-06T08:57:22.108Z,11.10
2024-04-06T09:00:52.774Z,14.70
2024-04-06T09:04:18.034Z,13.00
2024-04-06T09:07:43.250Z,14.80
2024-04-06T09:11:13.400Z,13.30
2024-04-06T09:14:43.349Z,15.10
2024-04-06T09:18:08.545Z,13.50
2024-04-06T09:21:34.141Z,14.40
2024-04-06T09:24:59.555Z,15.80
2024-04-06T09:28:24.837Z,12.20
2024-04-06T09:31:52.811Z,13.30
2024-04-06T09:35:18.102Z,19.10
2024-04-06T09:38:45.302Z,14.90
2024-04-06T09:42:13.642Z,16.80
2024-04-06T09:45:40.293Z,13.60
2024-04-06T09:49:08.541Z,13.90
2024-04-06T09:52:37.245Z,11.70
2024-04-06T09:56:04.040Z,11.60
2024-04-06T09:59:30.929Z,12.60
2024-04-06T10:02:56.977Z,11.50
2024-04-06T10:06:24.148Z,15.70
2024-04-06T10:09:59.871Z,15.20
2024-04-06T10:13:25.624Z,15.30
2024-04-06T10:16:54.668Z,9.60
2024-04-06T10:20:24.246Z,12.20
2024-04-06T10:24:08.576Z,15.60
2024-04-06T10:27:40.858Z,10.50
2024-04-06T10:31:07.018Z,14.90
2024-04-06T10:34:42.850Z,11.50
2024-04-06T10:38:11.606Z,16.20
2024-04-06T10:41:37.138Z,14.30
2024-04-06T10:45:03.675Z,13.20
2024-04-06T10:48:29.031Z,13.20
2024-04-06T10:51:54.632Z,12.60
2024-04-06T10:55:20.475Z,9.60
2024-04-06T10:58:45.827Z,12.60
2024-04-06T11:02:12.079Z,16.00
2024-04-06T11:05:38.782Z,14.90
2024-04-06T11:09:07.541Z,12.00
2024-04-06T11:12:35.559Z,14.70
2024-04-06T11:16:03.422Z,11.70
2024-04-06T11:19:28.629Z,10.50
2024-04-06T11:22:53.863Z,15.30
2024-04-06T11:26:24.059Z,9.00
2024-04-06T11:29:50.920Z,10.90
2024-04-06T11:33:17.267Z,12.10
2024-04-06T11:36:42.663Z,9.60
2024-04-06T11:40:09.112Z,14.70
2024-04-06T11:43:34.790Z,11.30
2024-04-06T11:47:01.081Z,11.20
2024-04-06T11:50:26.028Z,6.80
2024-04-06T11:53:51.502Z,5.50
2024-04-06T11:57:17.187Z,13.20
2024-04-06T12:00:42.396Z,11.90
2024-04-06T12:04:08.230Z,13.80
2024-04-06T12:07:35.045Z,10.50
2024-04-06T12:11:01.130Z,8.00
2024-04-06T12:14:27.069Z,12.90
2024-04-06T12:17:52.874Z,8.80
2024-04-06T12:21:19.040Z,10.80
2024-04-06T12:24:46.453Z,7.40
2024-04-06T12:28:11.652Z,6.70
2024-04-06T12:31:37.095Z,7.30
2024-04-06T12:35:02.471Z,8.90
2024-04-06T12:38:27.665Z,7.80
2024-04-06T12:41:52.938Z,9.00
2024-04-06T12:45:18.142Z,7.00
2024-04-06T12:48:43.022Z,6.20
2024-04-06T12:52:09.113Z,7.30
2024-04-06T12:55:34.231Z,12.50
2024-04-06T12:58:59.613Z,7.70
2024-04-06T13:02:25.342Z,10.80
2024-04-06T13:05:53.079Z,10.30
2024-04-06T13:09:18.947Z,7.80
2024-04-06T13:12:44.325Z,7.60
2024-04-06T13:16:09.505Z,8.70
2024-04-06T13:19:34.896Z,10.70
2024-04-06T13:22:59.899Z,6.90
2024-04-06T13:26:25.414Z,7.50
2024-04-06T13:29:51.869Z,7.50
2024-04-06T13:33:17.217Z,11.00
2024-04-06T13:36:42.794Z,10.50
2024-04-06T13:40:11.677Z,7.70
2024-04-06T13:43:36.928Z,10.30
2024-04-06T13:47:02.309Z,7.90
2024-04-06T13:50:27.624Z,7.30
2024-04-06T13:53:52.977Z,7.50
2024-04-06T13:57:18.421Z,8.00
2024-04-06T14:00:43.778Z,8.80
2024-04-06T14:04:09.080Z,4.50
2024-04-06T14:07:34.254Z,7.60
2024-04-06T14:10:59.687Z,9.90
2024-04-06T14:14:29.978Z,6.20
2024-04-06T14:17:55.923Z,7.20
2024-04-06T14:21:21.240Z,6.10
2024-04-06T14:24:46.463Z,7.90
2024-04-06T14:28:11.751Z,8.00
2024-04-06T14:31:36.914Z,7.20
2024-04-06T14:35:02.111Z,6.00
2024-04-06T14:38:27.381Z,8.90
2024-04-06T14:41:53.441Z,9.90
2024-04-06T14:45:18.610Z,9.10
2024-04-06T14:48:44.248Z,6.10
2024-04-06T14:52:10.203Z,7.80
2024-04-06T14:55:35.675Z,7.50
2024-04-06T14:59:01.085Z,8.80
2024-04-06T15:02:26.443Z,6.90
2024-04-06T15:05:53.228Z,8.80
2024-04-06T15:09:18.984Z,10.00
2024-04-06T15:12:44.717Z,6.40
2024-04-06T15:16:10.333Z,7.60
2024-04-06T15:19:35.952Z,10.30
2024-04-06T15:23:01.703Z,8.30
2024-04-06T15:26:26.835Z,6.10
2024-04-06T15:29:52.526Z,8.70
2024-04-06T15:33:21.335Z,8.80
2024-04-06T15:36:46.765Z,6.30
2024-04-06T15:40:13.302Z,9.10
2024-04-06T15:43:39.274Z,8.60
2024-04-06T15:47:08.734Z,13.10
2024-04-06T15:50:35.465Z,7.20
2024-04-06T15:54:01.307Z,8.10
2024-04-06T15:57:26.408Z,9.70
2024-04-06T16:00:52.036Z,6.30
2024-04-06T16:04:18.429Z,7.20
2024-04-06T16:07:43.735Z,6.70
2024-04-06T16:11:09.100Z,7.60
2024-04-06T16:14:34.874Z,12.90
2024-04-06T16:18:00.225Z,8.60
2024-04-06T16:21:28.488Z,10.20
2024-04-06T16:24:54.591Z,10.20
2024-04-06T16:28:19.535Z,20.20
2024-04-06T16:31:44.748Z,5.60
2024-04-06T16:35:10.477Z,8.80
2024-04-06T16:38:35.749Z,9.10
2024-04-06T16:42:03.636Z,7.60
2024-04-06T16:45:28.748Z,9.80
2024-04-06T16:48:54.643Z,9.40
2024-04-06T16:52:19.736Z,7.90
2024-04-06T16:55:44.754Z,8.20
2024-04-06T16:59:09.858Z,5.10
2024-04-06T17:02:34.927Z,6.90
2024-04-06T17:06:01.065Z,7.20
2024-04-06T17:09:26.758Z,7.20
2024-04-06T17:12:51.964Z,12.80
2024-04-06T17:16:16.988Z,9.80
2024-04-06T17:19:41.901Z,16.70
2024-04-06T17:23:11.853Z,15.60
2024-04-06T17:26:36.996Z,14.20
2024-04-06T17:30:02.667Z,13.30
2024-04-06T17:33:28.548Z,18.80
2024-04-06T17:36:54.060Z,14.50
2024-04-06T17:40:19.418Z,18.50
2024-04-06T17:43:46.415Z,19.40
2024-04-06T17:47:11.540Z,24.90
2024-04-06T17:50:36.893Z,25.10
2024-04-06T17:54:02.305Z,19.90
2024-04-06T17:57:28.048Z,24.20
2024-04-06T18:00:53.594Z,25.30
2024-04-06T18:04:19.010Z,25.60
2024-04-06T18:07:44.557Z,24.10
2024-04-06T18:11:10.254Z,20.50
2024-04-06T18:14:36.866Z,18.20
2024-04-06T18:18:03.151Z,18.90
2024-04-06T18:21:28.686Z,14.00
2024-04-06T18:24:55.017Z,11.30
2024-04-06T18:28:20.218Z,16.10
2024-04-06T18:31:45.781Z,14.00
2024-04-06T18:35:12.436Z,11.50
2024-04-06T18:38:37.417Z,14.10
2024-04-06T18:42:03.692Z,11.70
2024-04-06T18:45:29.803Z,8.90
2024-04-06T18:48:55.276Z,9.10
2024-04-06T18:52:20.748Z,6.30
2024-04-06T18:55:46.773Z,10.20
2024-04-06T18:59:14.334Z,13.60
2024-04-06T19:02:44.773Z,15.90
2024-04-06T19:06:10.610Z,17.40
2024-04-06T19:09:36.374Z,17.70
2024-04-06T19:13:02.954Z,16.30
2024-04-06T19:16:28.273Z,13.50
2024-04-06T19:19:53.306Z,11.60
2024-04-06T19:23:18.599Z,11.20
2024-04-06T19:26:43.954Z,13.20
2024-04-06T19:30:10.840Z,12.10
2024-04-06T19:33:38.589Z,10.30
2024-04-06T19:37:04.615Z,12.90
2024-04-06T19:40:30.919Z,10.70
2024-04-06T19:43:56.615Z,8.30
2024-04-06T19:47:22.451Z,14.30
2024-04-06T19:50:48.108Z,12.00
2024-04-06T19:54:13.498Z,8.90
2024-04-06T19:57:39.743Z,6.60
2024-04-06T20:01:05.708Z,7.30
2024-04-06T20:04:31.032Z,10.00
2024-04-06T20:07:57.257Z,5.40
2024-04-06T20:11:22.643Z,9.60
2024-04-06T20:14:48.698Z,9.90
2024-04-06T20:18:15.550Z,8.30
2024-04-06T20:21:42.083Z,7.10
2024-04-06T20:25:28.167Z,12.20
2024-04-06T20:28:54.804Z,15.20
2024-04-06T20:32:19.922Z,13.60
2024-04-06T20:35:46.194Z,12.30
2024-04-06T20:39:13.980Z,12.50
2024-04-06T20:42:40.100Z,11.70
2024-04-06T20:46:06.112Z,12.00
2024-04-06T20:49:31.584Z,12.20
2024-04-06T20:52:57.399Z,13.70
2024-04-06T20:56:22.152Z,9.30
2024-04-06T20:59:47.318Z,11.40
2024-04-06T21:03:12.875Z,10.30
2024-04-06T21:06:39.020Z,9.70
2024-04-06T21:10:05.361Z,11.70
2024-04-06T21:13:30.493Z,11.90
2024-04-06T21:16:57.794Z,14.30
2024-04-06T21:20:23.262Z,19.40
2024-04-06T21:23:48.610Z,17.40
2024-04-06T21:27:14.790Z,11.30
2024-04-06T21:30:40.484Z,9.00
2024-04-06T21:34:06.324Z,9.50
2024-04-06T21:37:31.313Z,9.50
2024-04-06T21:40:56.557Z,10.60
2024-04-06T21:44:21.732Z,8.50
2024-04-06T21:47:47.492Z,11.10
2024-04-06T21:51:12.941Z,10.60
2024-04-06T21:54:39.195Z,15.80
2024-04-06T21:58:04.486Z,10.10
2024-04-06T22:01:29.840Z,11.30
2024-04-06T22:04:55.061Z,11.40
2024-04-06T22:08:20.889Z,9.20
2024-04-06T22:11:48.122Z,12.70
2024-04-06T22:15:13.094Z,9.80
2024-04-06T22:18:38.476Z,13.40
2024-04-06T22:22:03.496Z,21.00
2024-04-06T22:25:29.377Z,27.00
2024-04-06T22:28:54.813Z,25.20
2024-04-06T22:32:20.634Z,17.90
2024-04-06T22:35:46.836Z,13.20
2024-04-06T22:39:12.442Z,14.30
2024-04-06T22:42:40.086Z,13.50
2024-04-06T22:46:05.927Z,14.90
2024-04-06T22:49:31.457Z,15.70
2024-04-06T22:52:57.058Z,10.50
2024-04-06T22:56:24.573Z,11.60
2024-04-06T22:59:51.475Z,11.00
2024-04-06T23:03:17.391Z,11.50
2024-04-06T23:06:43.072Z,9.00
2024-04-06T23:10:09.683Z,11.70
2024-04-06T23:13:34.894Z,18.60
2024-04-06T23:17:02.813Z,11.80
2024-04-06T23:20:28.487Z,15.50
2024-04-06T23:23:53.406Z,11.90
2024-04-06T23:27:18.977Z,17.70
2024-04-06T23:30:45.291Z,14.30
2024-04-06T23:34:11.553Z,16.40
2024-04-06T23:37:37.213Z,18.20
2024-04-06T23:41:02.982Z,15.40
2024-04-06T23:44:28.076Z,15.20
2024-04-06T23:47:53.172Z,18.20
2024-04-06T23:51:18.807Z,14.30
2024-04-06T23:54:44.144Z,14.20
2024-04-06T23:58:09.103Z,16.70
